createdAt,value
2023-02-04T00:00:20.625Z,5.72
2023-02-04T00:02:47.621Z,1.63
2023-02-04T00:05:16.351Z,4.43
2023-02-04T00:07:43.437Z,1.83
2023-02-04T00:10:10.587Z,4.70
2023-02-04T00:12:37.531Z,3.45
2023-02-04T00:15:05.281Z,3.70
2023-02-04T00:17:32.182Z,2.22
2023-02-04T00:19:59.248Z,4.88
2023-02-04T00:22:28.330Z,4.13
2023-02-04T00:24:55.202Z,2.35
2023-02-04T00:27:22.205Z,1.85
2023-02-04T00:29:48.973Z,4.13
2023-02-04T00:32:15.985Z,7.93
2023-02-04T00:34:42.843Z,3.38
2023-02-04T00:37:09.720Z,6.55
2023-02-04T00:39:36.625Z,5.40
2023-02-04T00:42:05.616Z,4.13
2023-02-04T00:44:32.568Z,2.42
2023-02-04T00:46:59.513Z,3.30
2023-02-04T00:49:26.314Z,9.00
2023-02-04T00:51:53.104Z,4.47
2023-02-04T00:54:19.977Z,3.83
2023-02-04T00:56:46.803Z,3.63
2023-02-04T00:59:13.702Z,6.50
2023-02-04T01:01:40.593Z,6.40
2023-02-04T01:04:07.601Z,1.77
2023-02-04T01:06:34.851Z,2.83
2023-02-04T01:09:01.756Z,4.05
2023-02-04T01:11:29.571Z,9.00
2023-02-04T01:13:56.692Z,2.92
2023-02-04T01:16:24.016Z,1.40
2023-02-04T01:18:51.443Z,4.85
2023-02-04T01:21:18.288Z,1.45
2023-02-04T01:23:45.111Z,3.95
2023-02-04T01:26:11.895Z,3.03
2023-02-04T01:28:41.525Z,7.43
2023-02-04T01:31:08.360Z,4.40
2023-02-04T01:33:35.438Z,3.47
2023-02-04T01:36:02.232Z,2.70
2023-02-04T01:38:29.078Z,3.05
2023-02-04T01:40:56.521Z,6.00
2023-02-04T01:43:23.912Z,5.63
2023-02-04T01:45:51.180Z,2.50
2023-02-04T01:48:20.701Z,1.08
2023-02-04T01:51:11.879Z,3.38
2023-02-04T01:53:39.801Z,3.03
2023-02-04T01:56:22.298Z,2.88
2023-02-04T01:58:49.697Z,9.35
2023-02-04T02:01:33.552Z,1.95
2023-02-04T02:04:01.306Z,5.45
2023-02-04T02:06:28.884Z,4.43
2023-02-04T02:08:55.934Z,4.43
2023-02-04T02:11:22.714Z,7.75
2023-02-04T02:13:49.608Z,5.05
2023-02-04T02:16:17.316Z,6.18
2023-02-04T02:18:44.204Z,4.93
2023-02-04T02:21:14.026Z,1.00
2023-02-04T02:23:52.796Z,2.40
2023-02-04T02:26:21.881Z,1.25
2023-02-04T02:28:50.076Z,6.05
2023-02-04T02:31:20.204Z,4.05
2023-02-04T02:33:47.838Z,9.40
2023-02-04T02:36:15.121Z,7.30
2023-02-04T02:38:42.159Z,1.63
2023-02-04T02:41:10.440Z,1.05
2023-02-04T02:43:38.617Z,8.07
2023-02-04T02:46:06.072Z,5.53
2023-02-04T02:48:33.356Z,5.72
2023-02-04T02:51:00.157Z,1.23
2023-02-04T02:53:27.003Z,4.78
2023-02-04T02:59:28.144Z,7.97
2023-02-04T03:02:02.917Z,2.80
2023-02-04T03:04:33.853Z,9.05
2023-02-04T03:07:01.099Z,3.33
2023-02-04T03:09:29.057Z,5.60
2023-02-04T03:11:56.320Z,5.53
2023-02-04T03:14:25.289Z,6.70
2023-02-04T03:19:40.514Z,4.28
2023-02-04T03:22:07.986Z,5.57
2023-02-04T03:24:36.193Z,3.00
2023-02-04T03:27:03.874Z,2.17
2023-02-04T03:29:31.752Z,7.18
2023-02-04T03:35:29.493Z,3.40
2023-02-04T03:37:56.415Z,5.47
2023-02-04T03:40:23.230Z,7.15
2023-02-04T03:42:49.967Z,4.40
2023-02-04T03:45:16.989Z,0.77
2023-02-04T03:47:43.806Z,6.72
2023-02-04T03:50:13.257Z,7.75
2023-02-04T03:52:40.181Z,3.70
2023-02-04T03:55:07.342Z,9.32
2023-02-04T03:57:34.093Z,5.13
2023-02-04T04:00:00.844Z,6.53
2023-02-04T04:02:27.710Z,3.85
2023-02-04T04:04:54.596Z,7.18
2023-02-04T04:07:21.538Z,6.93
2023-02-04T04:09:48.393Z,8.00
2023-02-04T04:12:15.144Z,3.55
2023-02-04T04:14:41.985Z,3.00
2023-02-04T04:17:08.825Z,5.55
2023-02-04T04:19:35.701Z,3.08
2023-02-04T04:22:02.516Z,5.40
2023-02-04T04:24:29.353Z,5.20
2023-02-04T04:26:56.157Z,6.68
2023-02-04T04:29:23.018Z,4.57
2023-02-04T04:31:49.842Z,8.23
2023-02-04T04:34:16.668Z,5.82
2023-02-04T04:36:43.508Z,1.63
2023-02-04T04:39:10.389Z,6.20
2023-02-04T04:41:37.206Z,3.13
2023-02-04T04:44:04.145Z,5.00
2023-02-04T04:46:31.115Z,7.80
2023-02-04T04:48:57.874Z,6.57
2023-02-04T04:51:24.721Z,3.00
2023-02-04T04:53:51.783Z,5.30
2023-02-04T04:56:19.224Z,1.20
2023-02-04T04:58:46.038Z,2.50
2023-02-04T05:01:12.863Z,4.82
2023-02-04T05:03:39.792Z,1.27
2023-02-04T05:06:06.586Z,5.05
2023-02-04T05:08:34.794Z,0.77
2023-02-04T05:11:02.726Z,2.83
2023-02-04T05:13:29.847Z,5.25
2023-02-04T05:15:56.771Z,1.88
2023-02-04T05:18:23.790Z,3.17
2023-02-04T05:20:50.582Z,3.42
2023-02-04T05:23:17.402Z,2.35
2023-02-04T05:25:44.403Z,2.75
2023-02-04T05:28:11.272Z,10.70
2023-02-04T05:30:38.247Z,1.58
2023-02-04T05:33:05.112Z,5.07
2023-02-04T05:35:31.835Z,25.42
2023-02-04T05:37:58.671Z,68.78
2023-02-04T05:40:25.452Z,29.85
2023-02-04T05:42:52.189Z,25.75
2023-02-04T05:45:19.151Z,16.67
2023-02-04T05:47:45.992Z,10.20
2023-02-04T05:50:12.875Z,8.02
2023-02-04T05:52:40.461Z,8.75
2023-02-04T05:55:08.512Z,7.13
2023-02-04T05:57:35.480Z,2.53
2023-02-04T06:00:02.549Z,4.22
2023-02-04T06:02:29.445Z,5.70
2023-02-04T06:04:56.168Z,3.05
2023-02-04T06:07:22.922Z,3.53
2023-02-04T06:09:49.789Z,1.75
2023-02-04T06:12:16.574Z,3.30
2023-02-04T06:14:43.350Z,3.05
2023-02-04T06:17:10.245Z,2.13
2023-02-04T06:19:36.964Z,5.40
2023-02-04T06:22:03.776Z,2.50
2023-02-04T06:24:30.610Z,2.92
2023-02-04T06:26:57.348Z,4.95
2023-02-04T06:29:24.163Z,4.15
2023-02-04T06:31:51.219Z,11.98
2023-02-04T06:34:18.113Z,5.55
2023-02-04T06:36:45.326Z,7.68
2023-02-04T06:39:12.208Z,7.63
2023-02-04T06:41:38.935Z,5.45
2023-02-04T06:44:05.840Z,8.02
2023-02-04T06:46:33.383Z,7.55
2023-02-04T06:49:00.201Z,14.27
2023-02-04T06:51:27.657Z,9.93
2023-02-04T06:53:54.448Z,4.00
2023-02-04T06:56:21.190Z,3.88
2023-02-04T06:58:48.049Z,2.85
2023-02-04T07:01:14.878Z,6.80
2023-02-04T07:03:41.721Z,2.88
2023-02-04T07:06:08.548Z,7.50
2023-02-04T07:08:35.360Z,9.15
2023-02-04T07:11:02.140Z,9.55
2023-02-04T07:13:28.957Z,6.57
2023-02-04T07:15:55.825Z,6.03
2023-02-04T07:18:22.702Z,7.78
2023-02-04T07:20:49.599Z,10.95
2023-02-04T07:23:16.417Z,7.13
2023-02-04T07:25:44.136Z,16.60
2023-02-04T07:28:10.978Z,15.65
2023-02-04T07:30:37.886Z,9.25
2023-02-04T07:33:04.704Z,14.07
2023-02-04T07:35:31.525Z,7.43
2023-02-04T07:37:58.299Z,8.25
2023-02-04T07:40:25.055Z,9.43
2023-02-04T07:42:51.821Z,20.77
2023-02-04T07:45:18.668Z,15.38
2023-02-04T07:47:45.642Z,19.05
2023-02-04T07:50:13.210Z,17.90
2023-02-04T07:52:40.191Z,9.07
2023-02-04T07:55:07.459Z,9.77
2023-02-04T07:57:34.478Z,16.50
2023-02-04T08:00:01.489Z,10.73
2023-02-04T08:02:28.359Z,7.88
2023-02-04T08:04:55.270Z,11.15
2023-02-04T08:07:22.113Z,7.43
2023-02-04T08:09:49.126Z,10.63
2023-02-04T08:12:15.901Z,11.05
2023-02-04T08:14:42.811Z,4.30
2023-02-04T08:17:09.636Z,12.57
2023-02-04T08:19:36.444Z,5.60
2023-02-04T08:22:03.231Z,6.20
2023-02-04T08:24:30.043Z,6.15
2023-02-04T08:26:58.244Z,4.38
2023-02-04T08:29:28.283Z,6.30
2023-02-04T08:31:55.286Z,10.48
2023-02-04T08:34:22.100Z,7.35
2023-02-04T08:36:48.899Z,5.00
2023-02-04T08:39:15.849Z,12.65
2023-02-04T08:41:42.648Z,6.35
2023-02-04T08:44:09.459Z,9.35
2023-02-04T08:46:36.452Z,7.72
2023-02-04T08:49:03.237Z,3.53
2023-02-04T08:51:30.122Z,3.30
2023-02-04T08:53:56.886Z,8.05
2023-02-04T08:56:24.005Z,4.65
2023-02-04T08:58:52.925Z,3.47
2023-02-04T09:01:20.423Z,2.63
2023-02-04T09:03:47.277Z,5.40
2023-02-04T09:06:14.310Z,8.20
2023-02-04T09:08:41.785Z,2.85
2023-02-04T09:11:10.842Z,2.75
2023-02-04T09:13:38.146Z,9.38
2023-02-04T09:16:05.330Z,7.95
2023-02-04T09:18:32.716Z,6.72
2023-02-04T09:24:42.462Z,7.95
2023-02-04T09:27:09.278Z,4.40
2023-02-04T09:30:27.735Z,7.85
2023-02-04T09:32:54.484Z,20.95
2023-02-04T09:35:21.245Z,10.13
2023-02-04T09:37:48.046Z,15.23
2023-02-04T09:40:17.355Z,6.68
2023-02-04T09:42:46.929Z,6.65
2023-02-04T09:45:35.274Z,6.95
2023-02-04T09:48:04.925Z,5.93
2023-02-04T09:50:33.018Z,9.80
2023-02-04T09:53:05.490Z,2.97
2023-02-04T09:55:35.787Z,2.38
2023-02-04T09:58:05.755Z,4.53
2023-02-04T10:00:32.894Z,7.55
2023-02-04T10:03:02.390Z,3.78
2023-02-04T10:05:31.588Z,6.07
2023-02-04T10:07:59.199Z,7.25
2023-02-04T10:10:27.812Z,3.72
2023-02-04T10:12:58.942Z,1.80
2023-02-04T10:15:26.449Z,1.92
2023-02-04T10:17:58.087Z,4.38
2023-02-04T10:20:25.449Z,5.45
2023-02-04T10:22:54.317Z,5.68
2023-02-04T10:25:23.749Z,1.73
2023-02-04T10:27:56.159Z,2.72
2023-02-04T10:30:39.315Z,8.35
2023-02-04T10:35:50.647Z,3.22
2023-02-04T10:38:17.414Z,2.42
2023-02-04T10:40:46.212Z,3.38
2023-02-04T10:43:23.234Z,2.22
2023-02-04T10:45:57.671Z,5.28
2023-02-04T10:48:25.333Z,3.03
2023-02-04T10:50:52.331Z,5.50
2023-02-04T10:53:39.892Z,3.88
2023-02-04T10:56:21.772Z,4.10
2023-02-04T10:58:50.848Z,3.88
2023-02-04T11:01:17.714Z,3.60
2023-02-04T11:03:47.722Z,6.93
2023-02-04T11:06:25.081Z,4.47
2023-02-04T11:08:53.538Z,3.40
2023-02-04T11:11:26.095Z,1.58
2023-02-04T11:13:54.569Z,5.82
2023-02-04T11:16:25.387Z,2.75
2023-02-04T11:18:56.592Z,2.15
2023-02-04T11:21:24.971Z,5.03
2023-02-04T11:24:24.303Z,7.88
2023-02-04T11:27:12.361Z,2.83
2023-02-04T11:29:39.667Z,3.92
2023-02-04T11:32:37.721Z,2.90
2023-02-04T11:35:22.696Z,7.70
2023-02-04T11:37:49.465Z,1.98
2023-02-04T11:40:30.104Z,2.22
2023-02-04T11:43:17.095Z,1.73
2023-02-04T11:45:44.516Z,3.55
2023-02-04T11:48:20.149Z,3.40
2023-02-04T11:50:58.279Z,5.15
2023-02-04T11:53:32.766Z,1.45
2023-02-04T11:56:00.705Z,0.77
2023-02-04T11:58:30.983Z,1.77
2023-02-04T12:00:57.941Z,3.13
2023-02-04T12:03:30.479Z,3.70
2023-02-04T12:05:58.740Z,2.33
2023-02-04T12:08:27.111Z,14.80
2023-02-04T12:11:07.955Z,7.90
2023-02-04T12:13:45.298Z,4.97
2023-02-04T12:16:12.100Z,5.32
2023-02-04T12:18:39.164Z,2.03
2023-02-04T12:21:06.219Z,1.50
2023-02-04T12:23:33.561Z,6.40
2023-02-04T12:26:00.400Z,3.72
2023-02-04T12:28:30.448Z,3.88
2023-02-04T12:30:57.476Z,2.17
2023-02-04T12:33:24.379Z,4.40
2023-02-04T12:35:51.572Z,6.82
2023-02-04T12:38:20.410Z,2.28
2023-02-04T12:40:47.396Z,2.75
2023-02-04T12:43:14.860Z,4.30
2023-02-04T12:45:45.748Z,3.72
2023-02-04T12:48:14.169Z,5.68
2023-02-04T12:50:41.458Z,4.82
2023-02-04T12:53:08.966Z,1.20
2023-02-04T12:55:36.366Z,56.45
2023-02-04T12:58:03.291Z,27.48
2023-02-04T13:00:30.300Z,63.05
2023-02-04T13:02:59.137Z,1.52
2023-02-04T13:05:26.887Z,24.58
2023-02-04T13:07:53.858Z,5.28
2023-02-04T13:10:21.861Z,2.17
2023-02-04T13:12:48.913Z,2.20
2023-02-04T13:15:16.137Z,1.60
2023-02-04T13:17:43.398Z,11.43
2023-02-04T13:20:10.835Z,10.38
2023-02-04T13:22:37.672Z,6.68
2023-02-04T13:25:06.509Z,4.80
2023-02-04T13:27:33.307Z,5.00
2023-02-04T13:30:00.256Z,6.53
2023-02-04T13:32:27.216Z,3.88
2023-02-04T13:34:53.981Z,3.95
2023-02-04T13:37:20.793Z,4.50
2023-02-04T13:39:47.598Z,5.38
2023-02-04T13:42:14.441Z,6.45
2023-02-04T13:44:41.205Z,2.75
2023-02-04T13:47:07.996Z,5.25
2023-02-04T13:49:34.818Z,3.90
2023-02-04T13:52:01.593Z,4.72
2023-02-04T13:54:28.355Z,2.42
2023-02-04T13:56:55.108Z,2.55
2023-02-04T13:59:21.898Z,5.90
2023-02-04T14:01:48.636Z,1.80
2023-02-04T14:04:15.454Z,1.95
2023-02-04T14:06:43.664Z,4.57
2023-02-04T14:09:12.081Z,2.50
2023-02-04T14:11:39.558Z,3.35
2023-02-04T14:14:07.219Z,2.28
2023-02-04T14:16:36.295Z,4.00
2023-02-04T14:19:04.575Z,5.00
2023-02-04T14:21:31.678Z,2.70
2023-02-04T14:23:58.474Z,3.20
2023-02-04T14:26:25.358Z,5.82
2023-02-04T14:28:52.209Z,2.65
2023-02-04T14:31:19.528Z,4.25
2023-02-04T14:33:47.629Z,4.13
2023-02-04T14:36:16.022Z,3.88
2023-02-04T14:38:42.975Z,7.57
2023-02-04T14:41:09.807Z,6.07
2023-02-04T14:43:37.353Z,5.57
2023-02-04T14:46:05.676Z,6.72
2023-02-04T14:48:32.772Z,3.25
2023-02-04T14:50:59.628Z,4.00
2023-02-04T14:53:26.507Z,4.63
2023-02-04T14:55:53.407Z,3.50
2023-02-04T14:58:20.183Z,3.63
2023-02-04T15:00:47.046Z,3.88
2023-02-04T15:03:13.851Z,3.03
2023-02-04T15:05:40.648Z,4.70
2023-02-04T15:08:07.424Z,3.50
2023-02-04T15:10:34.409Z,3.78
2023-02-04T15:13:01.551Z,6.72
2023-02-04T15:15:28.561Z,7.28
2023-02-04T15:17:55.495Z,6.13
2023-02-04T15:20:22.270Z,11.68
2023-02-04T15:22:52.428Z,4.78
2023-02-04T15:25:20.025Z,8.80
2023-02-04T15:27:46.883Z,13.27
2023-02-04T15:30:14.084Z,49.25
2023-02-04T15:32:42.861Z,27.73
2023-02-04T15:35:09.870Z,27.85
2023-02-04T15:37:36.843Z,112.43
2023-02-04T15:40:04.562Z,66.88
2023-02-04T15:42:31.326Z,73.28
2023-02-04T15:44:58.083Z,62.05
2023-02-04T15:47:24.873Z,76.45
2023-02-04T15:49:51.641Z,85.68
2023-02-04T15:52:24.628Z,75.43
2023-02-04T15:54:52.714Z,42.75
2023-02-04T15:57:19.433Z,19.48
2023-02-04T15:59:46.192Z,16.92
2023-02-04T16:02:13.181Z,9.15
2023-02-04T16:04:41.549Z,9.85
2023-02-04T16:07:08.616Z,10.75
2023-02-04T16:09:35.980Z,7.03
2023-02-04T16:12:03.468Z,7.70
2023-02-04T16:14:30.382Z,7.28
2023-02-04T16:16:57.582Z,9.50
2023-02-04T16:19:24.340Z,13.95
2023-02-04T16:21:51.141Z,10.32
2023-02-04T16:24:18.561Z,6.70
2023-02-04T16:26:46.113Z,11.45
2023-02-04T16:29:13.038Z,11.45
2023-02-04T16:31:39.830Z,19.48
2023-02-04T16:34:06.680Z,22.35
2023-02-04T16:36:33.694Z,30.02
2023-02-04T16:39:02.801Z,29.75
2023-02-04T16:41:29.789Z,25.08
2023-02-04T16:43:56.655Z,36.38
2023-02-04T16:46:23.619Z,32.38
2023-02-04T16:48:50.422Z,29.95
2023-02-04T16:51:17.983Z,13.98
2023-02-04T16:53:44.874Z,10.05
2023-02-04T16:56:11.663Z,7.50
2023-02-04T16:58:39.907Z,9.60
2023-02-04T17:01:07.291Z,14.35
2023-02-04T17:03:34.495Z,9.68
2023-02-04T17:06:02.282Z,10.48
2023-02-04T17:08:29.604Z,15.70
2023-02-04T17:11:15.372Z,19.75
2023-02-04T17:13:42.226Z,28.25
2023-02-04T17:16:08.996Z,36.45
2023-02-04T17:18:35.955Z,37.50
2023-02-04T17:21:02.961Z,39.08
2023-02-04T17:23:32.180Z,32.10
2023-02-04T17:25:59.574Z,26.30
2023-02-04T17:28:26.477Z,22.30
2023-02-04T17:30:53.428Z,21.65
2023-02-04T17:33:20.370Z,13.05
2023-02-04T17:35:47.199Z,10.90
2023-02-04T17:38:14.294Z,16.40
2023-02-04T17:40:42.550Z,8.75
2023-02-04T17:43:09.624Z,18.15
2023-02-04T17:45:38.147Z,11.00
2023-02-04T17:48:05.501Z,10.75
2023-02-04T17:53:04.655Z,18.17
2023-02-04T17:55:33.933Z,23.00
2023-02-04T17:58:10.842Z,28.63
2023-02-04T18:00:37.982Z,16.90
2023-02-04T18:03:05.793Z,22.20
2023-02-04T18:05:35.771Z,29.73
2023-02-04T18:08:37.440Z,34.50
2023-02-04T18:11:29.271Z,42.67
2023-02-04T18:14:12.527Z,51.55
2023-02-04T18:16:40.285Z,35.20
2023-02-04T18:19:29.652Z,35.78
2023-02-04T18:21:59.769Z,33.80
2023-02-04T18:24:33.964Z,21.70
2023-02-04T18:27:11.525Z,12.18
2023-02-04T18:29:40.899Z,9.93
2023-02-04T18:32:25.694Z,10.57
2023-02-04T18:34:57.358Z,9.73
2023-02-04T18:37:33.068Z,13.68
2023-02-04T18:40:08.970Z,7.03
2023-02-04T18:42:43.963Z,11.15
2023-02-04T18:45:25.009Z,17.73
2023-02-04T18:47:58.582Z,19.25
2023-02-04T18:50:30.886Z,19.20
2023-02-04T18:53:13.709Z,17.70
2023-02-04T18:55:49.851Z,18.33
2023-02-04T18:58:33.980Z,12.73
2023-02-04T19:01:03.467Z,14.27
2023-02-04T19:03:42.191Z,18.17
2023-02-04T19:06:40.366Z,13.48
2023-02-04T19:09:10.265Z,16.52
2023-02-04T19:11:46.185Z,31.85
2023-02-04T19:14:37.620Z,32.88
2023-02-04T19:17:25.282Z,28.17
2023-02-04T19:19:57.877Z,34.80
2023-02-04T19:22:46.051Z,14.30
2023-02-04T19:25:27.975Z,11.38
2023-02-04T19:27:57.569Z,15.65
2023-02-04T19:30:30.771Z,18.95
2023-02-04T19:33:15.625Z,40.58
2023-02-04T19:35:43.589Z,31.05
2023-02-04T19:38:47.890Z,30.08
2023-02-04T19:41:29.617Z,33.03
2023-02-04T19:44:08.729Z,35.13
2023-02-04T19:46:35.620Z,23.02
2023-02-04T19:49:21.851Z,22.35
2023-02-04T19:51:53.298Z,31.48
2023-02-04T19:54:25.392Z,31.05
2023-02-04T19:56:54.777Z,24.25
2023-02-04T19:59:26.402Z,27.92
2023-02-04T20:02:00.833Z,30.27
2023-02-04T20:04:39.759Z,23.88
2023-02-04T20:07:27.938Z,27.90
2023-02-04T20:10:20.969Z,25.35
2023-02-04T20:12:51.242Z,34.88
2023-02-04T20:15:20.656Z,35.50
2023-02-04T20:17:48.658Z,37.90
2023-02-04T20:20:21.998Z,43.40
2023-02-04T20:23:19.441Z,29.33
2023-02-04T20:25:49.331Z,31.88
2023-02-04T20:28:21.212Z,47.80
2023-02-04T20:30:52.515Z,42.67
2023-02-04T20:33:44.110Z,44.25
2023-02-04T20:36:26.051Z,48.35
2023-02-04T20:39:19.244Z,44.67
2023-02-04T20:41:46.078Z,41.47
2023-02-04T20:44:24.365Z,43.20
2023-02-04T20:46:51.210Z,49.13
2023-02-04T20:49:23.768Z,35.25
2023-02-04T20:51:55.938Z,36.80
2023-02-04T20:54:22.709Z,32.47
2023-02-04T20:56:49.608Z,37.85
2023-02-04T20:59:34.466Z,37.70
2023-02-04T21:02:04.595Z,27.10
2023-02-04T21:04:38.438Z,26.20
2023-02-04T21:07:22.472Z,18.47
2023-02-04T21:09:49.888Z,18.58
2023-02-04T21:12:16.760Z,13.05
2023-02-04T21:14:43.582Z,15.00
2023-02-04T21:17:10.463Z,10.77
2023-02-04T21:19:37.267Z,10.13
2023-02-04T21:22:04.049Z,9.05
2023-02-04T21:24:31.960Z,9.55
2023-02-04T21:26:58.935Z,5.80
2023-02-04T21:29:26.182Z,5.30
2023-02-04T21:31:54.596Z,8.15
2023-02-04T21:34:21.826Z,6.43
2023-02-04T21:36:48.588Z,8.30
2023-02-04T21:39:15.731Z,9.82
2023-02-04T21:41:42.553Z,4.93
2023-02-04T21:44:09.364Z,9.07
2023-02-04T21:46:36.212Z,5.60
2023-02-04T21:49:03.951Z,4.30
2023-02-04T21:51:30.861Z,5.50
2023-02-04T21:53:57.768Z,5.57
2023-02-04T21:56:24.586Z,5.72
2023-02-04T21:58:52.437Z,11.90
2023-02-04T22:01:19.272Z,12.63
2023-02-04T22:03:46.165Z,6.40
2023-02-04T22:06:12.976Z,6.18
2023-02-04T22:08:39.908Z,4.80
2023-02-04T22:11:06.803Z,9.18
2023-02-04T22:13:52.073Z,10.70
2023-02-04T22:16:18.866Z,7.55
2023-02-04T22:18:45.815Z,11.70
2023-02-04T22:21:12.933Z,6.07
2023-02-04T22:23:40.470Z,6.82
2023-02-04T22:26:07.419Z,9.55
2023-02-04T22:28:34.242Z,7.10
2023-02-04T22:31:01.243Z,7.25
2023-02-04T22:33:28.086Z,10.15
2023-02-04T22:35:54.831Z,12.85
2023-02-04T22:38:21.931Z,10.02
2023-02-04T22:40:50.044Z,9.23
2023-02-04T22:43:16.930Z,7.57
2023-02-04T22:45:43.658Z,24.85
2023-02-04T22:48:10.522Z,8.75
2023-02-04T22:50:37.302Z,8.10
2023-02-04T22:53:04.146Z,7.57
2023-02-04T22:55:31.114Z,10.63
2023-02-04T22:57:58.024Z,6.97
2023-02-04T23:00:25.057Z,4.13
2023-02-04T23:02:51.842Z,5.22
2023-02-04T23:05:18.661Z,6.03
2023-02-04T23:07:45.593Z,8.38
2023-02-04T23:10:13.300Z,11.38
2023-02-04T23:12:40.162Z,6.13
2023-02-04T23:15:07.288Z,8.52
2023-02-04T23:17:34.071Z,3.65
2023-02-04T23:20:01.039Z,4.22
2023-02-04T23:22:27.810Z,5.50
2023-02-04T23:24:54.594Z,8.52
2023-02-04T23:27:21.577Z,6.10
2023-02-04T23:29:48.326Z,7.45
2023-02-04T23:32:15.506Z,4.82
2023-02-04T23:34:42.402Z,4.00
2023-02-04T23:37:09.212Z,6.13
2023-02-04T23:39:36.226Z,5.47
2023-02-04T23:42:03.107Z,9.68
2023-02-04T23:44:30.052Z,9.38
2023-02-04T23:46:56.813Z,7.47
2023-02-04T23:49:23.667Z,11.60
2023-02-04T23:51:50.751Z,16.38
2023-02-04T23:54:17.542Z,9.25
2023-02-04T23:56:44.330Z,10.57
2023-02-04T23:59:11.140Z,8.32
